Impacts METAR Board
IDs:

KHBG - Hattiesburg/Chain Mu, MS, US

Updated at: 1400 UTC 19 Aug 2019
Potential Impact None Slight Moderate High
Time 19/02Z 19/03Z 19/04Z 19/05Z 19/06Z 19/07Z 19/08Z 19/09Z 19/10Z 19/11Z 19/12Z 19/13Z 19/14Z
Temp78 78 77 76 75 76 75 75 76 75 75 79 81
Dewpt75 75 74 74 73 73 73 73 73 73 73 74 75
Altim30.00 30.01 30.00 29.99 30.01 30.01 30.01 30.01 30.02 30.03 30.04 30.05 30.06
VIS10 10 10 10 10 10 10 10 10 10 10 10 10
CIG-- -- -- -- -- -- -- -- -- 47 -- -- 95
CoverFEWCLRCLRCLRCLRCLRCLRCLRFEWBKNFEWCLRBKN
FltCatVFRVFRVFRVFRVFRVFRVFRVFRVFRVFRVFRVFRVFR
WX--------------------------
WDir200170160230000000000
WSpd3 3 4 3 0 0 0 0 0 0 0 0 0
WGst-- -- -- -- -- -- -- -- -- -- -- -- --
Raw hourly METARs
KHBG 190153Z AUTO 20003KT 10SM FEW120 26/24 A3000 RMK AO2 SLP156 T02560239
KHBG 190253Z AUTO 17003KT 10SM CLR 26/24 A3001 RMK AO2 SLP159 T02560239 51006
KHBG 190353Z AUTO 16004KT 10SM CLR 25/23 A3000 RMK AO2 SLP155 T02500233
KHBG 190453Z AUTO 23003KT 10SM CLR 24/23 A2999 RMK AO2 SLP153 T02440233
KHBG 190553Z AUTO 00000KT 10SM CLR 24/23 A3001 RMK AO2 SLP159 T02390228 10272 20239 403390228 53001
KHBG 190653Z AUTO 00000KT 10SM CLR 24/23 A3001 RMK AO2 SLP159 T02440228
KHBG 190753Z AUTO 00000KT 10SM CLR 24/23 A3001 RMK AO2 SLP158 T02390228
KHBG 190853Z AUTO 00000KT 10SM CLR 24/23 A3001 RMK AO2 SLP160 T02390228 53001
KHBG 190953Z AUTO 00000KT 10SM FEW042 24/23 A3002 RMK AO2 SLP163 T02440228
KHBG 191053Z AUTO 00000KT 10SM BKN047 24/23 A3003 RMK AO2 SLP166 T02390228
KHBG 191153Z AUTO 00000KT 10SM FEW048 24/23 A3004 RMK AO2 SLP170 70003 T02390228 10244 20239 53010
KHBG 191253Z AUTO 00000KT 10SM CLR 26/23 A3005 RMK AO2 SLP173 T02610233
KHBG 191353Z AUTO 00000KT 10SM BKN095 27/24 A3006 RMK AO2 SLP175 T02720239



Page loaded:  14:49 UTC  |   07:49 AM Pacific  |   08:49 AM Mountain  |   09:49 AM Central  |   10:49 AM Eastern

 

ADVISORIES

FORECASTS

FORECASTS

OBSERVATIONS

USER TOOLS

ABOUT US